Time;durP1;ratioP1;P1;durP2;ratioP2;P2;SDS_P1;SDS_P2;PMS_P1;PMS_P2;Temp;Humidity;BMP_temperature;BMP_pressure;BME280_temperature;BME280_humidity;BME280_pressure;Samples;Min_cycle;Max_cycle;Signal;HPM_P1;HPM_P2
2021/10/30 00:00:17;;;;;;;0.10;0.10;;;5.60;99.90;;;;;;5093895;28;20114;-65
2021/10/30 00:02:43;;;;;;;1.42;1.05;;;5.60;99.90;;;;;;5093308;28;20039;-65
2021/10/30 00:05:12;;;;;;;3.72;0.88;;;5.70;99.90;;;;;;5092515;28;20036;-65
2021/10/30 00:07:43;;;;;;;1.15;1.05;;;5.70;99.90;;;;;;5093316;28;20097;-65
2021/10/30 00:10:13;;;;;;;0.80;0.80;;;5.60;99.90;;;;;;5093853;28;20492;-64
2021/10/30 00:12:39;;;;;;;0.93;0.90;;;5.70;99.90;;;;;;5093250;28;20048;-65
2021/10/30 00:15:06;;;;;;;2.35;2.05;;;5.70;99.90;;;;;;5093558;28;20359;-65
2021/10/30 00:17:32;;;;;;;0.20;0.20;;;5.70;99.90;;;;;;5093382;28;20024;-65
2021/10/30 00:19:58;;;;;;;0.30;0.30;;;5.70;99.90;;;;;;5093071;28;20511;-65
2021/10/30 00:22:24;;;;;;;1.55;1.45;;;5.70;99.90;;;;;;5093351;28;20115;-65
2021/10/30 00:24:50;;;;;;;1.63;1.33;;;5.60;99.90;;;;;;5093330;28;20050;-65
2021/10/30 00:27:16;;;;;;;4.97;3.28;;;5.60;99.90;;;;;;5093347;28;20023;-65
2021/10/30 00:29:42;;;;;;;2.22;2.13;;;5.60;99.90;;;;;;5092514;28;20544;-65
2021/10/30 00:32:08;;;;;;;0.52;0.52;;;5.60;99.90;;;;;;5091716;28;20115;-65
2021/10/30 00:34:34;;;;;;;1.13;1.13;;;5.70;99.90;;;;;;5093112;28;20036;-65
2021/10/30 00:37:00;;;;;;;0.20;0.20;;;5.70;99.90;;;;;;5092035;28;20086;-65
2021/10/30 00:39:26;;;;;;;2.20;1.00;;;5.70;99.90;;;;;;5093221;28;20032;-65
2021/10/30 00:41:53;;;;;;;2.72;1.10;;;5.60;99.90;;;;;;5092690;28;20388;-65
2021/10/30 00:44:21;;;;;;;0.30;0.30;;;5.60;99.90;;;;;;5091974;28;20035;-64
2021/10/30 00:46:52;;;;;;;0.63;0.63;;;5.70;99.90;;;;;;5092637;28;20397;-64
2021/10/30 00:49:20;;;;;;;1.75;0.93;;;5.60;99.90;;;;;;5093181;28;20043;-64
2021/10/30 00:51:51;;;;;;;0.10;0.10;;;5.60;99.90;;;;;;5092568;28;20032;-64
2021/10/30 00:54:18;;;;;;;0.20;0.20;;;5.70;99.90;;;;;;5091576;28;20033;-64
2021/10/30 00:56:46;;;;;;;0.75;0.75;;;5.70;99.90;;;;;;5092455;28;20481;-64
2021/10/30 00:59:14;;;;;;;1.48;1.38;;;5.60;99.90;;;;;;5092755;28;20362;-64
2021/10/30 01:01:44;;;;;;;0.25;0.25;;;5.50;99.90;;;;;;5092540;28;20458;-64
2021/10/30 01:04:10;;;;;;;0.20;0.20;;;5.50;99.90;;;;;;5092860;28;20085;-65
2021/10/30 01:06:40;;;;;;;0.30;0.30;;;5.60;99.90;;;;;;5091146;28;20480;-65
2021/10/30 01:09:06;;;;;;;0.60;0.60;;;5.50;99.90;;;;;;5091634;28;20036;-65
2021/10/30 01:11:32;;;;;;;1.38;0.85;;;5.40;99.90;;;;;;5091545;28;20063;-65
2021/10/30 01:14:00;;;;;;;0.50;0.50;;;5.30;99.90;;;;;;5092432;28;20028;-65
2021/10/30 01:16:26;;;;;;;1.73;1.63;;;5.20;99.90;;;;;;5091484;28;20024;-64
2021/10/30 01:18:51;;;;;;;0.90;0.63;;;5.30;99.90;;;;;;5091973;28;20051;-65
2021/10/30 01:21:26;;;;;;;2.97;1.75;;;5.20;99.90;;;;;;5091482;28;20028;-64
2021/10/30 01:23:53;;;;;;;0.65;0.65;;;5.20;99.90;;;;;;5091013;28;20047;-64
2021/10/30 01:26:21;;;;;;;2.30;2.20;;;5.20;99.90;;;;;;5091084;28;20032;-65
2021/10/30 01:28:48;;;;;;;0.25;0.25;;;5.10;99.90;;;;;;5092164;28;20136;-64
2021/10/30 01:31:15;;;;;;;0.20;0.20;;;5.10;99.90;;;;;;5091401;28;20051;-65
2021/10/30 01:33:42;;;;;;;0.45;0.45;;;5.10;99.90;;;;;;5092528;28;20035;-64
2021/10/30 01:36:10;;;;;;;0.10;0.10;;;5.10;99.90;;;;;;5092340;28;20066;-64
2021/10/30 01:38:36;;;;;;;0.20;0.20;;;5.00;99.90;;;;;;5074079;28;20066;-64
2021/10/30 01:41:02;;;;;;;0.30;0.30;;;5.00;99.90;;;;;;5093587;28;20089;-63
2021/10/30 01:43:28;;;;;;;0.30;0.30;;;5.00;99.90;;;;;;5096192;28;20118;-63
2021/10/30 01:45:54;;;;;;;1.48;1.40;;;5.00;99.90;;;;;;5096016;28;20028;-63
2021/10/30 01:48:28;;;;;;;1.95;1.85;;;5.00;99.90;;;;;;5095023;28;20028;-64
2021/10/30 01:50:54;;;;;;;0.30;0.30;;;5.00;99.90;;;;;;5096102;28;20058;-64
2021/10/30 01:53:20;;;;;;;1.35;1.30;;;5.00;99.90;;;;;;5096020;28;20469;-64
2021/10/30 01:55:46;;;;;;;0.57;0.57;;;5.00;99.90;;;;;;5094819;28;20068;-64
2021/10/30 01:58:14;;;;;;;0.20;0.20;;;4.90;99.90;;;;;;5096264;28;20453;-64
2021/10/30 02:00:41;;;;;;;1.45;1.40;;;4.90;99.90;;;;;;5096032;28;20369;-64
2021/10/30 02:03:07;;;;;;;1.60;1.50;;;4.80;99.90;;;;;;5094668;28;20035;-64
2021/10/30 02:05:33;;;;;;;1.27;1.17;;;4.70;99.90;;;;;;5095989;28;20040;-64
2021/10/30 02:07:59;;;;;;;0.80;0.80;;;4.80;99.90;;;;;;5094567;28;20032;-64
2021/10/30 02:10:25;;;;;;;2.85;2.30;;;4.70;99.90;;;;;;5095749;28;20043;-64
2021/10/30 02:12:51;;;;;;;1.40;1.30;;;4.70;99.90;;;;;;5094612;28;20032;-64
2021/10/30 02:15:17;;;;;;;0.20;0.20;;;4.60;99.90;;;;;;5095967;28;20028;-64
2021/10/30 02:17:43;;;;;;;0.00;0.00;;;4.60;99.90;;;;;;5095599;28;20028;-64
2021/10/30 02:20:10;;;;;;;0.20;0.20;;;4.60;99.90;;;;;;5095309;28;20048;-64
2021/10/30 02:22:37;;;;;;;5.05;1.38;;;4.70;99.90;;;;;;5094511;28;20048;-64
2021/10/30 02:25:09;;;;;;;1.50;1.40;;;4.70;99.90;;;;;;5095814;28;20032;-64
2021/10/30 02:27:36;;;;;;;0.10;0.10;;;4.70;99.90;;;;;;5094540;28;20111;-64
2021/10/30 02:30:04;;;;;;;1.30;0.75;;;4.70;99.90;;;;;;5095495;28;20032;-64
2021/10/30 02:32:30;;;;;;;0.17;0.17;;;4.70;99.90;;;;;;5095650;28;20058;-64
2021/10/30 02:34:56;;;;;;;0.60;0.60;;;4.80;99.90;;;;;;5095195;28;20204;-64
2021/10/30 02:37:22;;;;;;;0.10;0.10;;;4.80;99.90;;;;;;5095373;28;20106;-64
2021/10/30 02:39:47;;;;;;;0.60;0.60;;;4.70;99.90;;;;;;5095098;28;20028;-64
2021/10/30 02:42:13;;;;;;;2.17;0.77;;;4.80;99.90;;;;;;5077489;28;20031;-64
2021/10/30 02:44:39;;;;;;;0.20;0.20;;;4.80;99.90;;;;;;5095252;28;20502;-64
2021/10/30 02:47:05;;;;;;;0.22;0.22;;;4.80;99.90;;;;;;5094150;28;20070;-64
2021/10/30 02:49:32;;;;;;;0.05;0.05;;;4.80;99.90;;;;;;5095072;28;20028;-64
2021/10/30 02:51:59;;;;;;;0.82;0.82;;;4.80;99.90;;;;;;5094404;28;20032;-64
2021/10/30 02:54:25;;;;;;;0.32;0.32;;;4.70;99.90;;;;;;5093660;28;20508;-64
2021/10/30 02:56:50;;;;;;;0.10;0.10;;;4.70;99.90;;;;;;5095083;28;20028;-64
2021/10/30 02:59:16;;;;;;;0.30;0.30;;;4.80;99.90;;;;;;5094842;28;20032;-64
2021/10/30 03:01:42;;;;;;;0.82;0.82;;;4.70;99.90;;;;;;5094777;28;20493;-64
2021/10/30 03:04:08;;;;;;;0.75;0.75;;;4.70;99.90;;;;;;5093576;28;20072;-64
2021/10/30 03:06:34;;;;;;;0.20;0.20;;;4.80;99.90;;;;;;5093818;28;20077;-64
2021/10/30 03:09:00;;;;;;;0.03;0.03;;;4.60;99.90;;;;;;5094504;28;20829;-64
2021/10/30 03:11:26;;;;;;;0.52;0.52;;;4.60;99.90;;;;;;5094671;28;20107;-64
2021/10/30 03:13:52;;;;;;;0.50;0.50;;;4.60;99.90;;;;;;5094610;28;20112;-64
2021/10/30 03:16:18;;;;;;;0.52;0.52;;;4.60;99.90;;;;;;5094615;28;20032;-64
2021/10/30 03:18:44;;;;;;;0.32;0.32;;;4.60;99.90;;;;;;5094320;28;20036;-64
2021/10/30 03:21:10;;;;;;;0.60;0.38;;;4.70;99.90;;;;;;5094709;28;20032;-64
2021/10/30 03:23:36;;;;;;;0.35;0.35;;;4.70;99.90;;;;;;5093679;28;20039;-64
2021/10/30 03:26:02;;;;;;;1.58;1.25;;;4.70;99.90;;;;;;5094122;28;20032;-64
2021/10/30 03:28:28;;;;;;;0.10;0.10;;;4.70;99.90;;;;;;5094325;28;20032;-64
2021/10/30 03:30:54;;;;;;;1.00;1.00;;;4.70;99.90;;;;;;5094118;28;20073;-64
2021/10/30 03:33:20;;;;;;;1.27;1.27;;;4.60;99.90;;;;;;5094087;28;20040;-64
2021/10/30 03:35:45;;;;;;;0.45;0.45;;;4.60;99.90;;;;;;5092782;28;20036;-64
2021/10/30 03:38:11;;;;;;;0.10;0.10;;;4.60;99.90;;;;;;5092941;28;20032;-64
2021/10/30 03:40:37;;;;;;;0.30;0.30;;;4.60;99.90;;;;;;5093921;28;20032;-64
2021/10/30 03:43:03;;;;;;;0.68;0.47;;;4.60;99.90;;;;;;5093869;28;20040;-64
2021/10/30 03:45:29;;;;;;;1.75;1.55;;;4.60;99.90;;;;;;5093900;28;20181;-64
2021/10/30 03:47:54;;;;;;;0.30;0.30;;;4.60;99.90;;;;;;5093820;28;20028;-64
2021/10/30 03:50:20;;;;;;;0.00;0.00;;;4.50;99.90;;;;;;5092708;28;20039;-64
2021/10/30 03:52:46;;;;;;;0.30;0.30;;;4.30;99.90;;;;;;5092797;28;20024;-64
2021/10/30 03:55:12;;;;;;;1.60;1.50;;;4.30;99.90;;;;;;5093600;28;20043;-64
2021/10/30 03:57:38;;;;;;;0.25;0.25;;;4.40;99.90;;;;;;5093781;28;20046;-64
2021/10/30 04:00:06;;;;;;;0.52;0.52;;;4.40;99.90;;;;;;5092280;28;20040;-64
2021/10/30 04:02:32;;;;;;;0.13;0.13;;;4.40;99.90;;;;;;5093812;28;20074;-64
2021/10/30 04:04:58;;;;;;;0.40;0.40;;;4.30;99.90;;;;;;5092722;28;20032;-64
2021/10/30 04:07:24;;;;;;;0.00;0.00;;;4.30;99.90;;;;;;5093892;28;20377;-64
2021/10/30 04:09:49;;;;;;;0.10;0.10;;;4.30;99.90;;;;;;5088727;28;20060;-64
2021/10/30 04:12:15;;;;;;;0.25;0.25;;;4.30;99.90;;;;;;5092831;28;20103;-64
2021/10/30 04:14:41;;;;;;;0.80;0.80;;;4.20;99.90;;;;;;5091231;28;20036;-64
2021/10/30 04:17:07;;;;;;;0.20;0.20;;;4.30;99.90;;;;;;5092575;28;20032;-64
2021/10/30 04:19:33;;;;;;;0.20;0.20;;;4.40;99.90;;;;;;5092902;28;20040;-64
2021/10/30 04:21:59;;;;;;;0.00;0.00;;;4.40;99.90;;;;;;5093173;28;20115;-66
2021/10/30 04:24:25;;;;;;;0.38;0.38;;;4.20;99.90;;;;;;5093292;28;20039;-64
2021/10/30 04:26:51;;;;;;;0.30;0.30;;;4.20;99.90;;;;;;5093180;28;20125;-65
2021/10/30 04:29:16;;;;;;;0.80;0.73;;;4.20;99.90;;;;;;5093276;28;20028;-66
2021/10/30 04:31:43;;;;;;;0.10;0.10;;;4.20;99.90;;;;;;5092123;28;20059;-65
2021/10/30 04:34:18;;;;;;;0.25;0.25;;;4.30;99.90;;;;;;5092979;28;20028;-65
2021/10/30 04:36:45;;;;;;;0.10;0.10;;;4.30;99.90;;;;;;5108755;28;20028;-65
2021/10/30 04:39:11;;;;;;;0.28;0.28;;;4.30;99.90;;;;;;5092042;28;20035;-65
2021/10/30 04:41:39;;;;;;;0.60;0.60;;;4.10;99.90;;;;;;5091788;28;20040;-65
2021/10/30 04:44:06;;;;;;;0.85;0.85;;;4.10;99.90;;;;;;5092794;28;20075;-65
2021/10/30 04:46:32;;;;;;;0.15;0.15;;;4.10;99.90;;;;;;5093127;28;20044;-65
2021/10/30 04:48:58;;;;;;;0.10;0.10;;;4.20;99.90;;;;;;5092114;28;20028;-65
2021/10/30 04:51:25;;;;;;;0.10;0.10;;;4.20;99.90;;;;;;5092969;28;20035;-65
2021/10/30 04:53:50;;;;;;;0.22;0.22;;;4.10;99.90;;;;;;5091715;28;20036;-64
2021/10/30 04:56:16;;;;;;;0.20;0.20;;;4.20;99.90;;;;;;5093593;28;20036;-65
2021/10/30 04:58:45;;;;;;;0.20;0.20;;;4.20;99.90;;;;;;5092334;28;20028;-66
2021/10/30 05:01:17;;;;;;;0.10;0.10;;;4.20;99.90;;;;;;5092723;28;20036;-64
2021/10/30 05:03:43;;;;;;;1.75;0.82;;;4.30;99.90;;;;;;5092839;28;20035;-65
2021/10/30 05:06:12;;;;;;;1.35;1.25;;;4.20;99.90;;;;;;5091549;28;20051;-66
2021/10/30 05:08:38;;;;;;;1.10;1.10;;;4.20;99.90;;;;;;5091695;28;20035;-66
2021/10/30 05:11:07;;;;;;;0.25;0.25;;;4.30;99.90;;;;;;5091297;28;20025;-66
2021/10/30 05:13:35;;;;;;;0.30;0.30;;;4.30;99.90;;;;;;5092882;28;20028;-66
2021/10/30 05:16:01;;;;;;;1.80;1.70;;;4.30;99.90;;;;;;5091796;28;20036;-66
2021/10/30 05:18:27;;;;;;;0.35;0.35;;;4.30;99.90;;;;;;5091360;28;20031;-64
2021/10/30 05:20:52;;;;;;;0.10;0.10;;;4.30;99.90;;;;;;5091920;28;20071;-63
2021/10/30 05:23:18;;;;;;;0.65;0.65;;;4.20;99.90;;;;;;5092423;28;20032;-65
2021/10/30 05:25:44;;;;;;;2.53;1.73;;;4.30;99.90;;;;;;5091229;28;20028;-65
2021/10/30 05:28:10;;;;;;;0.32;0.32;;;4.10;99.90;;;;;;5092246;28;20044;-64
2021/10/30 05:30:35;;;;;;;0.40;0.40;;;4.10;99.90;;;;;;5092594;28;20040;-65
2021/10/30 05:33:01;;;;;;;0.30;0.30;;;4.00;99.90;;;;;;5092064;28;20063;-63
2021/10/30 05:35:27;;;;;;;0.17;0.17;;;4.10;99.90;;;;;;5092434;28;20058;-63
2021/10/30 05:37:53;;;;;;;0.00;0.00;;;4.20;99.90;;;;;;5108129;28;20032;-61
2021/10/30 05:40:18;;;;;;;0.47;0.47;;;4.00;99.90;;;;;;5091241;28;20048;-63
2021/10/30 05:42:44;;;;;;;2.97;1.58;;;4.20;99.90;;;;;;5091066;28;20051;-62
2021/10/30 05:45:11;;;;;;;1.73;1.63;;;4.30;99.90;;;;;;5092043;28;20070;-62
2021/10/30 05:47:38;;;;;;;9.05;3.05;;;4.20;99.90;;;;;;5092461;28;20032;-63
2021/10/30 05:50:05;;;;;;;0.57;0.57;;;4.30;99.90;;;;;;5092203;28;20111;-63
2021/10/30 05:52:31;;;;;;;1.67;1.13;;;4.20;99.90;;;;;;5091965;28;20028;-63
2021/10/30 05:54:57;;;;;;;0.50;0.50;;;4.30;99.90;;;;;;5091748;28;20388;-63
2021/10/30 05:57:24;;;;;;;0.35;0.35;;;4.30;99.90;;;;;;5090788;28;20036;-63
2021/10/30 05:59:49;;;;;;;1.73;1.63;;;4.40;99.90;;;;;;5091867;28;20404;-63
2021/10/30 06:02:15;;;;;;;0.10;0.10;;;4.30;99.90;;;;;;5091813;28;20028;-65
2021/10/30 06:04:42;;;;;;;0.82;0.82;;;4.40;99.90;;;;;;5092280;28;20050;-64
2021/10/30 06:07:09;;;;;;;0.10;0.10;;;5.10;99.90;;;;;;5092027;28;20416;-63
2021/10/30 06:09:36;;;;;;;2.55;1.95;;;5.10;99.90;;;;;;5091891;28;20085;-65
2021/10/30 06:12:03;;;;;;;0.52;0.52;;;4.90;99.90;;;;;;5091993;28;20040;-64
2021/10/30 06:14:28;;;;;;;0.20;0.20;;;4.70;99.90;;;;;;5090862;28;20553;-66
2021/10/30 06:16:54;;;;;;;0.30;0.30;;;4.70;99.90;;;;;;5090424;28;20119;-65
2021/10/30 06:19:20;;;;;;;2.33;2.17;;;4.60;99.90;;;;;;5090341;28;20138;-65
2021/10/30 06:21:46;;;;;;;0.30;0.30;;;4.60;99.90;;;;;;5091988;28;20059;-65
2021/10/30 06:24:12;;;;;;;0.73;0.73;;;4.60;99.90;;;;;;5091875;28;20028;-67
2021/10/30 06:26:38;;;;;;;0.03;0.03;;;4.40;99.90;;;;;;5091232;28;20522;-66
2021/10/30 06:29:04;;;;;;;0.57;0.55;;;4.50;99.90;;;;;;5095412;28;20063;-66
2021/10/30 06:31:30;;;;;;;1.25;1.15;;;4.40;99.90;;;;;;5094343;28;20035;-66
2021/10/30 06:33:56;;;;;;;0.65;0.65;;;4.50;99.90;;;;;;5095555;28;20020;-66
2021/10/30 06:36:21;;;;;;;0.95;0.95;;;4.50;99.90;;;;;;5095402;28;20073;-64
2021/10/30 06:38:50;;;;;;;8.20;1.80;;;4.50;99.90;;;;;;5095260;28;20396;-65
2021/10/30 06:41:16;;;;;;;0.55;0.55;;;4.50;99.90;;;;;;5094034;28;20042;-64
2021/10/30 06:43:41;;;;;;;0.30;0.30;;;4.40;99.90;;;;;;5094100;28;20068;-62
2021/10/30 06:46:08;;;;;;;0.10;0.10;;;4.50;99.90;;;;;;5094947;28;20055;-62
2021/10/30 06:48:36;;;;;;;0.40;0.40;;;4.60;99.90;;;;;;5094995;28;20082;-64
2021/10/30 06:51:04;;;;;;;0.10;0.10;;;4.60;99.90;;;;;;5094124;28;20073;-63
2021/10/30 06:53:29;;;;;;;0.03;0.03;;;4.60;99.90;;;;;;5094931;28;20067;-62
2021/10/30 06:55:56;;;;;;;3.55;1.10;;;4.60;99.90;;;;;;5110726;28;20059;-62
2021/10/30 06:58:22;;;;;;;1.55;0.95;;;4.60;99.90;;;;;;5110408;28;20071;-62
2021/10/30 07:00:48;;;;;;;0.15;0.15;;;4.60;99.90;;;;;;5093595;28;20039;-62
2021/10/30 07:03:15;;;;;;;1.65;1.55;;;4.70;99.90;;;;;;5094759;28;20028;-62
2021/10/30 07:05:41;;;;;;;0.32;0.32;;;4.70;99.90;;;;;;5095030;28;20040;-62
2021/10/30 07:08:06;;;;;;;3.60;2.28;;;4.80;99.90;;;;;;5087448;28;20029;-62
2021/10/30 07:10:32;;;;;;;0.13;0.13;;;4.80;99.90;;;;;;5081795;28;20035;-63
2021/10/30 07:12:58;;;;;;;0.82;0.80;;;4.90;99.90;;;;;;5092143;28;20460;-63
2021/10/30 07:15:24;;;;;;;0.20;0.20;;;4.90;99.90;;;;;;5094022;28;20054;-61
2021/10/30 07:17:50;;;;;;;0.40;0.40;;;5.00;99.90;;;;;;5093454;28;20043;-62
2021/10/30 07:20:16;;;;;;;0.10;0.10;;;5.00;99.90;;;;;;5092718;28;20439;-62
2021/10/30 07:22:48;;;;;;;0.17;0.17;;;5.00;99.90;;;;;;5076212;28;20022;-63
2021/10/30 07:25:20;;;;;;;0.00;0.00;;;5.10;99.90;;;;;;5094200;28;20039;-62
2021/10/30 07:27:46;;;;;;;0.10;0.10;;;5.30;99.90;;;;;;5086019;28;20025;-62
2021/10/30 07:30:12;;;;;;;0.20;0.20;;;5.20;99.90;;;;;;5073875;28;20036;-64
2021/10/30 07:32:38;;;;;;;0.10;0.10;;;5.20;99.90;;;;;;5089463;28;20052;-64
2021/10/30 07:35:05;;;;;;;0.55;0.30;;;5.20;99.90;;;;;;5073744;28;20111;-64
2021/10/30 07:37:33;;;;;;;0.75;0.73;;;5.20;99.90;;;;;;5073662;28;20063;-63
2021/10/30 07:39:59;;;;;;;5.45;1.15;;;5.30;99.90;;;;;;5088854;28;20029;-63
2021/10/30 07:42:25;;;;;;;0.00;0.00;;;5.40;99.90;;;;;;5089534;28;20553;-60
2021/10/30 07:44:51;;;;;;;0.52;0.52;;;5.40;99.90;;;;;;5073606;28;20082;-62
2021/10/30 07:47:17;;;;;;;0.60;0.60;;;5.30;99.90;;;;;;5073746;28;20024;-62
2021/10/30 07:49:43;;;;;;;0.32;0.32;;;5.40;99.90;;;;;;5078730;28;20051;-61
2021/10/30 07:52:10;;;;;;;0.13;0.13;;;5.30;99.90;;;;;;5093766;28;20066;-66
2021/10/30 07:54:38;;;;;;;1.38;1.27;;;5.30;99.90;;;;;;5092388;28;20178;-67
2021/10/30 07:57:09;;;;;;;0.55;0.55;;;5.40;99.90;;;;;;5093742;28;20034;-64
2021/10/30 07:59:38;;;;;;;0.73;0.73;;;5.50;99.90;;;;;;5092341;28;20100;-65
2021/10/30 08:02:06;;;;;;;3.20;0.82;;;5.50;99.90;;;;;;5093314;28;20032;-65
2021/10/30 08:04:36;;;;;;;4.18;0.85;;;5.60;99.90;;;;;;5093577;28;20028;-65
2021/10/30 08:07:04;;;;;;;0.60;0.60;;;5.60;99.90;;;;;;5075103;28;20032;-65
2021/10/30 08:09:30;;;;;;;1.65;1.55;;;5.70;99.90;;;;;;5092412;28;20032;-64
2021/10/30 08:11:56;;;;;;;0.40;0.40;;;5.80;99.90;;;;;;5093170;28;20388;-64
2021/10/30 08:14:23;;;;;;;3.92;1.08;;;5.80;99.90;;;;;;5091714;28;20043;-65
2021/10/30 08:16:49;;;;;;;2.78;0.98;;;5.90;99.90;;;;;;5092036;28;20443;-66
2021/10/30 08:19:14;;;;;;;0.98;0.95;;;5.90;99.90;;;;;;5091595;28;20399;-63
2021/10/30 08:21:40;;;;;;;0.57;0.57;;;5.90;99.90;;;;;;5093023;28;20032;-63
2021/10/30 08:24:06;;;;;;;0.80;0.80;;;6.00;99.90;;;;;;5092986;28;20028;-63
2021/10/30 08:26:34;;;;;;;6.63;1.27;;;6.00;99.90;;;;;;5093348;28;20530;-63
2021/10/30 08:29:00;;;;;;;6.18;2.10;;;6.10;99.90;;;;;;5092660;28;20052;-63
2021/10/30 08:31:25;;;;;;;2.80;2.60;;;6.10;99.90;;;;;;5092712;28;20054;-63
2021/10/30 08:33:52;;;;;;;1.27;1.25;;;6.10;99.90;;;;;;5093133;28;20028;-73
2021/10/30 08:36:20;;;;;;;16.95;2.83;;;6.10;99.90;;;;;;5093125;28;20036;-72
2021/10/30 08:38:46;;;;;;;5.70;5.20;;;6.20;99.90;;;;;;5091965;28;20056;-70
2021/10/30 08:41:12;;;;;;;1.38;1.27;;;6.30;99.90;;;;;;5092949;28;20075;-71
2021/10/30 08:43:37;;;;;;;0.63;0.63;;;6.30;99.90;;;;;;5091729;28;20032;-73
2021/10/30 08:46:04;;;;;;;1.60;1.50;;;6.40;99.90;;;;;;5091258;28;20511;-73
2021/10/30 08:48:31;;;;;;;2.80;2.17;;;6.40;99.90;;;;;;5091697;28;20050;-74
2021/10/30 08:51:03;;;;;;;1.08;1.08;;;6.50;99.90;;;;;;5091101;28;20061;-71
2021/10/30 08:53:30;;;;;;;1.02;0.95;;;6.50;99.90;;;;;;5092556;28;20056;-70
2021/10/30 08:55:58;;;;;;;1.27;1.17;;;6.60;99.90;;;;;;5080630;28;20039;-71
2021/10/30 08:58:27;;;;;;;1.58;0.95;;;6.50;99.90;;;;;;5087599;28;20557;-73
2021/10/30 09:00:57;;;;;;;2.45;2.03;;;6.50;99.90;;;;;;5072186;28;20614;-73
2021/10/30 09:03:24;;;;;;;1.15;1.08;;;6.50;99.90;;;;;;5087554;28;20028;-73
2021/10/30 09:05:54;;;;;;;2.47;1.00;;;6.50;99.90;;;;;;5087832;28;20082;-72
2021/10/30 09:08:24;;;;;;;0.20;0.20;;;6.40;99.90;;;;;;5071966;28;20054;-74
2021/10/30 09:10:57;;;;;;;1.80;0.52;;;6.40;99.90;;;;;;5072571;28;20037;-74
2021/10/30 09:13:29;;;;;;;0.60;0.60;;;6.40;99.90;;;;;;5087669;28;20032;-71
2021/10/30 09:15:56;;;;;;;2.88;2.67;;;6.40;99.90;;;;;;5089971;28;20413;-76
2021/10/30 09:18:40;;;;;;;0.57;0.57;;;6.50;99.90;;;;;;5072047;28;20036;-72
2021/10/30 09:21:15;;;;;;;0.40;0.40;;;6.40;99.90;;;;;;5090846;28;20374;-76
2021/10/30 09:23:52;;;;;;;0.98;0.90;;;6.30;99.90;;;;;;5090910;28;20032;-74
2021/10/30 09:26:24;;;;;;;0.88;0.55;;;6.30;99.90;;;;;;5077717;28;20094;-74
2021/10/30 09:28:55;;;;;;;0.13;0.13;;;6.20;99.90;;;;;;5071865;28;20482;-75
2021/10/30 09:31:26;;;;;;;0.52;0.52;;;6.20;99.90;;;;;;5073572;28;20044;-73
2021/10/30 09:34:00;;;;;;;0.50;0.50;;;6.10;99.90;;;;;;5092026;28;20039;-75
2021/10/30 09:36:31;;;;;;;1.35;1.25;;;6.00;99.90;;;;;;5074010;28;20046;-74
2021/10/30 09:38:59;;;;;;;;;;;5.90;99.90;;;;;;5091134;28;20089;-73
2021/10/30 09:41:30;;;;;;;0.25;0.25;;;5.90;99.90;;;;;;5092385;28;20456;-73
2021/10/30 09:43:57;;;;;;;0.73;0.73;;;5.80;99.90;;;;;;5090338;28;20111;-71
2021/10/30 09:46:27;;;;;;;0.43;0.43;;;5.90;99.90;;;;;;5087361;28;20032;-72
2021/10/30 09:48:54;;;;;;;1.55;0.50;;;6.00;99.90;;;;;;5070627;28;20028;-71
2021/10/30 09:51:37;;;;;;;3.75;2.08;;;6.00;99.90;;;;;;5071812;28;20040;-71
2021/10/30 09:54:05;;;;;;;0.30;0.30;;;6.10;99.90;;;;;;5074956;28;20043;-73
2021/10/30 09:56:43;;;;;;;0.10;0.10;;;6.20;99.90;;;;;;5090634;28;20028;-73
2021/10/30 09:59:17;;;;;;;0.73;0.73;;;6.10;99.90;;;;;;5088774;28;20054;-73
2021/10/30 10:01:48;;;;;;;4.65;0.65;;;6.20;99.90;;;;;;5092119;28;20507;-73
2021/10/30 10:04:17;;;;;;;1.20;1.10;;;6.30;99.90;;;;;;5095736;28;20081;-73
2021/10/30 10:06:49;;;;;;;2.72;0.73;;;6.20;99.90;;;;;;5094860;28;20032;-73
2021/10/30 10:09:17;;;;;;;2.25;2.10;;;6.30;99.90;;;;;;5094823;28;20054;-74
2021/10/30 10:11:48;;;;;;;1.38;0.95;;;6.30;99.90;;;;;;5094317;28;20024;-73
2021/10/30 10:14:20;;;;;;;0.65;0.65;;;6.30;99.90;;;;;;5095181;28;20444;-74
2021/10/30 10:16:48;;;;;;;2.65;2.45;;;6.40;99.90;;;;;;5094777;28;20115;-73
2021/10/30 10:19:15;;;;;;;1.05;1.05;;;6.40;99.90;;;;;;5095064;28;20048;-74
2021/10/30 10:21:42;;;;;;;0.00;0.00;;;6.40;99.90;;;;;;5094237;28;20035;-73
2021/10/30 10:24:28;;;;;;;1.45;1.35;;;6.30;99.90;;;;;;5094121;28;20032;-73
2021/10/30 10:26:59;;;;;;;0.30;0.30;;;6.30;99.90;;;;;;5094278;28;20032;-72
2021/10/30 10:29:29;;;;;;;;;;;6.30;99.90;;;;;;5095933;28;20112;-73
2021/10/30 10:31:56;;;;;;;0.75;0.75;;;6.40;99.90;;;;;;5095609;28;19912;-72
2021/10/30 10:34:34;;;;;;;1.35;1.27;;;6.40;99.90;;;;;;5093954;28;20040;-73
2021/10/30 10:37:13;;;;;;;1.38;0.77;;;6.40;99.90;;;;;;5095560;28;20036;-73
2021/10/30 10:39:40;;;;;;;0.43;0.43;;;6.50;99.90;;;;;;5095394;28;20028;-73
2021/10/30 10:42:11;;;;;;;0.55;0.55;;;6.60;99.90;;;;;;5094720;28;20028;-73
2021/10/30 10:44:43;;;;;;;;;;;6.50;99.90;;;;;;5095638;28;20111;-73
2021/10/30 10:47:34;;;;;;;0.65;0.65;;;6.40;99.90;;;;;;5094947;28;19912;-73
2021/10/30 10:50:23;;;;;;;0.10;0.10;;;6.50;99.90;;;;;;5074620;28;20596;-71
2021/10/30 10:53:16;;;;;;;0.35;0.35;;;6.40;99.90;;;;;;5089299;28;20044;-72
2021/10/30 10:55:45;;;;;;;0.93;0.85;;;6.60;99.90;;;;;;5084321;28;20481;-71
2021/10/30 10:58:12;;;;;;;0.95;0.85;;;6.60;99.90;;;;;;5094876;28;20036;-71
2021/10/30 11:00:58;;;;;;;0.63;0.63;;;6.70;99.90;;;;;;5094827;28;20119;-71
2021/10/30 11:03:29;;;;;;;0.05;0.05;;;6.70;99.90;;;;;;5093273;28;20473;-71
2021/10/30 11:06:03;;;;;;;0.50;0.40;;;6.70;99.90;;;;;;5093400;28;20545;-71
2021/10/30 11:08:34;;;;;;;2.47;1.80;;;6.70;99.90;;;;;;5094787;28;20078;-71
2021/10/30 11:11:27;;;;;;;1.67;1.05;;;6.70;99.90;;;;;;5093402;28;20099;-70
2021/10/30 11:14:05;;;;;;;1.05;0.85;;;6.70;99.90;;;;;;5093809;28;20035;-69
2021/10/30 11:16:45;;;;;;;7.25;3.50;;;6.70;99.90;;;;;;5093140;28;20062;-69
2021/10/30 11:19:26;;;;;;;0.40;0.40;;;6.70;99.90;;;;;;5092889;28;20048;-70
2021/10/30 11:22:15;;;;;;;2.70;2.33;;;6.70;99.90;;;;;;5076046;28;20039;-70
2021/10/30 11:25:00;;;;;;;1.88;1.75;;;6.80;99.90;;;;;;5090274;28;20020;-70
2021/10/30 11:27:28;;;;;;;2.17;2.08;;;6.80;99.90;;;;;;5088857;28;20040;-70
2021/10/30 11:29:55;;;;;;;0.43;0.43;;;6.80;99.90;;;;;;5089544;28;20107;-70
2021/10/30 11:32:33;;;;;;;1.45;1.35;;;6.80;99.90;;;;;;5089373;28;20032;-70
2021/10/30 11:35:01;;;;;;;13.43;2.13;;;6.90;99.90;;;;;;5089430;28;20029;-70
2021/10/30 11:37:40;;;;;;;2.05;1.92;;;6.90;99.90;;;;;;5073479;28;20090;-71
2021/10/30 11:40:08;;;;;;;11.48;3.17;;;7.00;99.90;;;;;;5089529;28;20041;-70
2021/10/30 11:42:44;;;;;;;3.50;3.28;;;7.10;99.90;;;;;;5073549;28;20492;-70
2021/10/30 11:45:11;;;;;;;4.00;3.63;;;7.00;99.90;;;;;;5073738;28;20489;-70
2021/10/30 11:47:36;;;;;;;0.35;0.35;;;7.10;99.90;;;;;;5088437;28;20094;-70
2021/10/30 11:50:10;;;;;;;2.88;1.98;;;7.20;99.90;;;;;;5089559;28;20024;-70
2021/10/30 11:52:50;;;;;;;1.25;1.13;;;7.20;99.90;;;;;;5073090;28;20029;-70
2021/10/30 11:55:21;;;;;;;2.30;2.10;;;7.20;99.90;;;;;;5089074;28;20472;-70
2021/10/30 11:57:46;;;;;;;5.07;2.38;;;7.20;99.90;;;;;;5089225;28;20064;-70
2021/10/30 12:00:13;;;;;;;0.63;0.63;;;7.40;99.90;;;;;;5073303;28;20500;-70
2021/10/30 12:02:40;;;;;;;0.85;0.85;;;7.40;99.90;;;;;;5073170;28;20034;-70
2021/10/30 12:05:12;;;;;;;8.77;2.10;;;7.50;99.90;;;;;;5089074;28;20068;-70
2021/10/30 12:07:43;;;;;;;2.50;2.33;;;7.50;99.90;;;;;;5088324;28;20020;-70
2021/10/30 12:10:11;;;;;;;0.52;0.52;;;7.50;99.90;;;;;;5073163;28;20029;-70
2021/10/30 12:12:37;;;;;;;1.17;1.08;;;7.50;99.90;;;;;;5088585;28;20128;-70
2021/10/30 12:15:03;;;;;;;6.20;5.57;;;7.50;99.90;;;;;;5073063;28;20111;-70
2021/10/30 12:17:35;;;;;;;1.40;1.30;;;7.40;99.90;;;;;;5071684;28;20025;-70
2021/10/30 12:20:10;;;;;;;2.13;1.23;;;7.50;99.90;;;;;;5072906;28;20048;-70
2021/10/30 12:22:44;;;;;;;4.95;3.65;;;7.40;99.90;;;;;;5088179;28;20036;-69
2021/10/30 12:25:13;;;;;;;2.90;1.73;;;7.40;99.90;;;;;;5087851;28;20063;-70
2021/10/30 12:27:53;;;;;;;2.15;1.95;;;7.40;99.90;;;;;;5088019;28;20033;-70
2021/10/30 12:30:37;;;;;;;5.88;2.53;;;7.30;99.90;;;;;;5092006;28;20127;-70
2021/10/30 12:33:16;;;;;;;9.68;2.00;;;7.40;99.90;;;;;;5091540;28;20070;-70
2021/10/30 12:35:50;;;;;;;2.58;1.05;;;7.40;99.90;;;;;;5092786;28;20062;-71
2021/10/30 12:38:25;;;;;;;1.20;1.10;;;7.50;99.90;;;;;;5091855;28;20024;-73
2021/10/30 12:40:53;;;;;;;0.30;0.30;;;7.50;99.90;;;;;;5091658;28;20043;-73
2021/10/30 12:43:28;;;;;;;7.85;2.70;;;7.40;99.90;;;;;;5091242;28;20107;-73
2021/10/30 12:46:01;;;;;;;3.35;2.85;;;7.40;99.90;;;;;;5091608;28;20510;-73
2021/10/30 12:48:39;;;;;;;1.08;1.08;;;7.50;99.90;;;;;;5091431;28;20036;-73
2021/10/30 12:51:12;;;;;;;7.45;3.58;;;7.40;99.90;;;;;;5091498;28;20040;-73
2021/10/30 12:53:39;;;;;;;2.80;1.83;;;7.30;99.90;;;;;;5091088;28;20550;-73
2021/10/30 12:56:08;;;;;;;2.15;0.77;;;7.40;99.90;;;;;;5091610;28;20032;-73
2021/10/30 12:58:45;;;;;;;2.15;2.05;;;7.40;99.90;;;;;;5091026;28;20035;-73
2021/10/30 13:01:25;;;;;;;1.90;1.80;;;7.40;99.90;;;;;;5091190;28;20618;-73
2021/10/30 13:04:11;;;;;;;1.77;1.67;;;7.30;99.90;;;;;;5091194;28;20481;-73